Time;durP1;ratioP1;P1;durP2;ratioP2;P2;SDS_P1;SDS_P2;PMS_P1;PMS_P2;Temp;Humidity;BMP_temperature;BMP_pressure;BME280_temperature;BME280_humidity;BME280_pressure;Samples;Min_cycle;Max_cycle;Signal;HPM_P1;HPM_P2
2023/07/10 00:02:00;;;;;;;63.53;43.35;;;20.30;99.90;;;;;;5055808;28;20513;-65
2023/07/10 00:04:25;;;;;;;55.97;42.13;;;20.20;99.90;;;;;;5055859;28;20060;-64
2023/07/10 00:06:51;;;;;;;59.30;42.28;;;20.20;99.90;;;;;;5055559;28;20036;-65
2023/07/10 00:09:16;;;;;;;61.53;44.83;;;20.10;99.90;;;;;;5055484;28;20064;-65
2023/07/10 00:11:43;;;;;;;58.13;43.95;;;20.10;99.90;;;;;;5055510;28;20033;-64
2023/07/10 00:14:18;;;;;;;56.72;43.95;;;20.10;99.90;;;;;;5055309;28;20505;-65
2023/07/10 00:16:44;;;;;;;59.22;44.17;;;20.20;99.90;;;;;;5055460;28;20032;-65
2023/07/10 00:19:11;;;;;;;62.58;43.85;;;20.10;99.90;;;;;;5055266;28;20017;-65
2023/07/10 00:21:37;;;;;;;57.17;42.83;;;20.10;99.90;;;;;;5054984;28;20021;-65
2023/07/10 00:24:02;;;;;;;52.40;43.33;;;20.10;99.90;;;;;;5054961;28;20060;-65
2023/07/10 00:26:28;;;;;;;63.75;43.20;;;20.10;99.90;;;;;;5055198;28;20033;-65
2023/07/10 00:28:56;;;;;;;54.35;43.45;;;20.10;99.90;;;;;;5055298;28;20037;-65
2023/07/10 00:31:24;;;;;;;52.30;41.45;;;20.20;99.90;;;;;;5037329;28;20483;-65
2023/07/10 00:33:50;;;;;;;56.05;42.63;;;20.20;99.90;;;;;;5054972;28;20131;-64
2023/07/10 00:36:38;;;;;;;52.22;41.92;;;20.20;99.90;;;;;;5054922;28;20075;-65
2023/07/10 00:39:29;;;;;;;49.65;41.75;;;20.20;99.90;;;;;;5055097;28;20098;-65
2023/07/10 00:42:01;;;;;;;53.33;41.17;;;20.20;99.90;;;;;;5054726;28;20383;-64
2023/07/10 00:44:34;;;;;;;53.05;39.17;;;20.20;99.90;;;;;;5054954;28;20031;-65
2023/07/10 00:47:06;;;;;;;58.38;41.47;;;20.10;99.90;;;;;;5054957;28;20099;-64
2023/07/10 00:49:58;;;;;;;58.00;42.00;;;20.10;99.90;;;;;;5054833;28;20029;-65
2023/07/10 00:52:43;;;;;;;50.03;41.00;;;20.10;99.90;;;;;;5054643;28;20120;-64
2023/07/10 00:55:30;;;;;;;53.38;40.78;;;20.00;99.90;;;;;;5054513;28;20032;-64
2023/07/10 00:58:24;;;;;;;55.95;41.22;;;20.00;99.90;;;;;;5054518;28;20448;-64
2023/07/10 01:01:14;;;;;;;57.50;40.80;;;20.00;99.90;;;;;;5054461;28;20021;-65
2023/07/10 01:03:41;;;;;;;51.10;39.25;;;20.10;99.90;;;;;;5054523;28;20112;-65
2023/07/10 01:06:13;;;;;;;56.70;42.22;;;20.10;99.90;;;;;;5054533;28;20083;-65
2023/07/10 01:08:42;;;;;;;59.45;42.00;;;20.20;99.90;;;;;;5053415;28;20040;-65
2023/07/10 01:11:08;;;;;;;51.88;39.38;;;20.10;99.90;;;;;;5054107;28;20482;-65
2023/07/10 01:13:38;;;;;;;55.35;39.58;;;20.10;99.90;;;;;;5054489;28;20021;-65
2023/07/10 01:16:04;;;;;;;53.53;41.42;;;20.10;99.90;;;;;;5053999;28;20151;-65
2023/07/10 01:18:29;;;;;;;51.30;39.50;;;20.10;99.90;;;;;;5054280;28;20080;-65
2023/07/10 01:21:31;;;;;;;56.13;39.10;;;20.20;99.90;;;;;;5054123;28;20406;-64
2023/07/10 01:23:59;;;;;;;48.65;38.22;;;20.10;99.90;;;;;;5053924;28;20076;-65
2023/07/10 01:26:25;;;;;;;52.13;39.90;;;20.10;99.90;;;;;;5054048;28;20025;-65
2023/07/10 01:28:52;;;;;;;48.90;38.53;;;20.10;99.90;;;;;;5053624;28;20025;-64
2023/07/10 01:31:19;;;;;;;49.05;39.13;;;20.00;99.90;;;;;;5054039;28;20033;-65
2023/07/10 01:34:03;;;;;;;54.15;39.08;;;20.10;99.90;;;;;;5053760;28;20032;-65
2023/07/10 01:36:30;;;;;;;;;;;20.00;99.90;;;;;;5054595;28;20059;-65
2023/07/10 01:39:04;;;;;;;55.38;40.28;;;20.10;99.90;;;;;;5053647;28;19905;-65
2023/07/10 01:41:36;;;;;;;50.28;38.67;;;20.00;99.90;;;;;;5053955;28;20163;-66
2023/07/10 01:44:12;;;;;;;52.03;39.15;;;20.00;99.90;;;;;;5053517;28;20025;-64
2023/07/10 01:46:37;;;;;;;48.38;37.63;;;19.90;99.90;;;;;;5053463;28;20391;-65
2023/07/10 01:49:04;;;;;;;55.42;39.63;;;19.80;99.90;;;;;;5053717;28;20029;-65
2023/07/10 01:51:30;;;;;;;47.53;38.38;;;19.80;99.90;;;;;;5053695;28;20032;-65
2023/07/10 01:54:02;;;;;;;51.83;40.17;;;19.80;99.90;;;;;;5053560;28;20479;-65
2023/07/10 01:56:29;;;;;;;53.63;39.93;;;19.70;99.90;;;;;;5053561;28;20025;-64
2023/07/10 01:58:54;;;;;;;52.42;39.45;;;19.70;99.90;;;;;;5053513;28;20051;-65
2023/07/10 02:01:20;;;;;;;56.47;42.40;;;19.70;99.90;;;;;;5053540;28;20065;-65
2023/07/10 02:03:45;;;;;;;50.45;40.28;;;19.70;99.90;;;;;;5053483;28;20041;-65
2023/07/10 02:06:11;;;;;;;56.10;41.20;;;19.70;99.90;;;;;;5053236;28;20024;-65
2023/07/10 02:08:37;;;;;;;52.13;40.38;;;19.70;99.90;;;;;;5053430;28;20044;-64
2023/07/10 02:11:02;;;;;;;59.08;39.83;;;19.70;99.90;;;;;;5053289;28;20029;-64
2023/07/10 02:13:28;;;;;;;51.13;39.45;;;19.70;99.90;;;;;;5053372;28;20029;-64
2023/07/10 02:16:00;;;;;;;49.92;38.78;;;19.70;99.90;;;;;;5053152;28;20060;-65
2023/07/10 02:18:25;;;;;;;50.10;37.88;;;19.70;99.90;;;;;;5052923;28;20116;-64
2023/07/10 02:20:53;;;;;;;47.67;39.40;;;19.70;99.90;;;;;;5053314;28;20072;-64
2023/07/10 02:23:19;;;;;;;52.08;39.55;;;19.60;99.90;;;;;;5052887;28;20045;-65
2023/07/10 02:25:44;;;;;;;49.85;38.90;;;19.60;99.90;;;;;;5052964;28;20540;-65
2023/07/10 02:28:10;;;;;;;51.08;38.72;;;19.70;99.90;;;;;;5052892;28;20158;-64
2023/07/10 02:30:38;;;;;;;52.08;41.17;;;19.70;99.90;;;;;;5053100;28;20394;-65
2023/07/10 02:33:04;;;;;;;50.45;39.83;;;19.70;99.90;;;;;;5053093;28;20022;-65
2023/07/10 02:35:30;;;;;;;52.78;39.80;;;19.70;99.90;;;;;;5035432;28;20032;-65
2023/07/10 02:37:55;;;;;;;51.42;40.60;;;19.60;99.90;;;;;;5053560;28;20447;-65
2023/07/10 02:40:21;;;;;;;50.35;39.78;;;19.60;99.90;;;;;;5052943;28;20509;-65
2023/07/10 02:42:46;;;;;;;52.78;39.85;;;19.70;99.90;;;;;;5052942;28;20552;-65
2023/07/10 02:45:13;;;;;;;58.92;40.33;;;19.60;99.90;;;;;;5053126;28;20143;-64
2023/07/10 02:47:38;;;;;;;52.25;38.75;;;19.60;99.90;;;;;;5052902;28;20037;-64
2023/07/10 02:50:04;;;;;;;53.80;38.13;;;19.60;99.90;;;;;;5053118;28;20494;-64
2023/07/10 02:52:30;;;;;;;51.38;37.65;;;19.60;99.90;;;;;;5052820;28;20029;-64
2023/07/10 02:54:55;;;;;;;48.83;38.47;;;19.60;99.90;;;;;;5052812;28;20029;-64
2023/07/10 02:57:21;;;;;;;49.88;38.42;;;19.60;99.90;;;;;;5052536;28;20116;-64
2023/07/10 02:59:46;;;;;;;51.25;37.80;;;19.60;99.90;;;;;;5052905;28;20116;-65
2023/07/10 03:02:12;;;;;;;51.13;39.22;;;19.60;99.90;;;;;;5052556;28;20033;-64
2023/07/10 03:04:37;;;;;;;47.60;39.90;;;19.60;99.90;;;;;;5052761;28;20032;-65
2023/07/10 03:07:03;;;;;;;50.05;37.88;;;19.60;99.90;;;;;;5052920;28;20029;-65
2023/07/10 03:09:29;;;;;;;49.10;38.28;;;19.50;99.90;;;;;;5052839;28;20037;-65
2023/07/10 03:11:55;;;;;;;48.15;38.45;;;19.60;99.90;;;;;;5052450;28;20025;-65
2023/07/10 03:14:21;;;;;;;51.38;37.17;;;19.60;99.90;;;;;;5052514;28;20036;-65
2023/07/10 03:16:47;;;;;;;54.17;37.50;;;19.60;99.90;;;;;;5052786;28;20029;-65
2023/07/10 03:19:13;;;;;;;45.10;35.55;;;19.60;99.90;;;;;;5052793;28;20021;-65
2023/07/10 03:21:38;;;;;;;42.60;35.53;;;19.50;99.90;;;;;;5052740;28;20466;-65
2023/07/10 03:24:04;;;;;;;44.95;34.92;;;19.50;99.90;;;;;;5052464;28;20087;-65
2023/07/10 03:26:30;;;;;;;41.88;33.35;;;19.50;99.90;;;;;;5052611;28;20060;-65
2023/07/10 03:29:08;;;;;;;47.90;34.65;;;19.50;99.90;;;;;;5052543;28;20029;-65
2023/07/10 03:31:34;;;;;;;49.58;36.60;;;19.40;99.90;;;;;;5054520;28;20128;-66
2023/07/10 03:33:59;;;;;;;45.53;36.08;;;19.40;99.90;;;;;;5056142;28;20104;-64
2023/07/10 03:36:25;;;;;;;45.35;35.70;;;19.40;99.90;;;;;;5055971;28;20021;-65
2023/07/10 03:38:50;;;;;;;52.03;36.45;;;19.40;99.90;;;;;;5055932;28;20025;-64
2023/07/10 03:41:16;;;;;;;45.90;35.88;;;19.40;99.90;;;;;;5055883;28;20028;-65
2023/07/10 03:43:41;;;;;;;47.42;36.67;;;19.40;99.90;;;;;;5056026;28;20032;-65
2023/07/10 03:46:07;;;;;;;44.75;36.22;;;19.40;99.90;;;;;;5055854;28;20029;-64
2023/07/10 03:48:32;;;;;;;49.60;36.28;;;19.40;99.90;;;;;;5055853;28;20033;-65
2023/07/10 03:50:58;;;;;;;45.72;35.75;;;19.40;99.90;;;;;;5055963;28;20085;-65
2023/07/10 03:53:24;;;;;;;51.72;37.50;;;19.40;99.90;;;;;;5055682;28;20037;-65
2023/07/10 03:55:51;;;;;;;49.65;35.85;;;19.40;99.90;;;;;;5055650;28;20398;-64
2023/07/10 03:58:22;;;;;;;46.17;36.00;;;19.40;99.90;;;;;;5055655;28;20411;-66
2023/07/10 04:00:49;;;;;;;45.75;34.40;;;19.40;99.90;;;;;;5055744;28;20021;-65
2023/07/10 04:03:15;;;;;;;43.08;35.08;;;19.40;99.90;;;;;;5055542;28;20075;-65
2023/07/10 04:05:42;;;;;;;49.38;36.10;;;19.40;99.90;;;;;;5055489;28;20025;-65
2023/07/10 04:08:08;;;;;;;53.28;36.72;;;19.40;99.90;;;;;;5055374;28;20052;-65
2023/07/10 04:10:35;;;;;;;47.63;35.63;;;19.40;99.90;;;;;;5055610;28;20029;-65
2023/07/10 04:13:01;;;;;;;51.08;37.85;;;19.40;99.90;;;;;;5055559;28;20021;-65
2023/07/10 04:15:27;;;;;;;49.42;36.33;;;19.40;99.90;;;;;;5055191;28;20033;-66
2023/07/10 04:17:52;;;;;;;44.50;35.00;;;19.40;99.90;;;;;;5055295;28;20032;-65
2023/07/10 04:20:18;;;;;;;47.08;35.03;;;19.40;99.90;;;;;;5055162;28;20470;-65
2023/07/10 04:22:43;;;;;;;46.47;35.60;;;19.40;99.90;;;;;;5055187;28;20036;-65
2023/07/10 04:25:10;;;;;;;49.63;38.03;;;19.40;99.90;;;;;;5055365;28;20041;-65
2023/07/10 04:27:35;;;;;;;52.47;39.38;;;19.40;99.90;;;;;;5055339;28;20035;-65
2023/07/10 04:30:01;;;;;;;51.08;40.13;;;19.40;99.90;;;;;;5055262;28;20033;-64
2023/07/10 04:32:26;;;;;;;52.65;40.22;;;19.40;99.90;;;;;;5055129;28;20083;-65
2023/07/10 04:34:52;;;;;;;50.67;38.75;;;19.40;99.90;;;;;;5054894;28;20091;-65
2023/07/10 04:37:17;;;;;;;52.72;36.80;;;19.40;99.90;;;;;;5055119;28;20027;-65
2023/07/10 04:39:43;;;;;;;53.88;37.03;;;19.40;99.90;;;;;;5054906;28;20033;-65
2023/07/10 04:42:08;;;;;;;50.40;36.13;;;19.40;99.90;;;;;;5054821;28;20455;-65
2023/07/10 04:44:34;;;;;;;50.75;36.63;;;19.40;99.90;;;;;;5055075;28;20115;-65
2023/07/10 04:46:59;;;;;;;54.13;33.70;;;19.40;99.90;;;;;;5054531;28;20120;-65
2023/07/10 04:49:25;;;;;;;47.40;33.58;;;19.40;99.90;;;;;;5054656;28;20071;-65
2023/07/10 04:51:51;;;;;;;45.92;33.28;;;19.40;99.90;;;;;;5054787;28;20029;-65
2023/07/10 04:54:16;;;;;;;43.92;31.60;;;19.50;99.90;;;;;;5054594;28;20498;-65
2023/07/10 04:56:42;;;;;;;41.15;29.77;;;19.50;99.90;;;;;;5054629;28;20037;-65
2023/07/10 04:59:08;;;;;;;41.05;29.13;;;19.50;99.90;;;;;;5054596;28;20028;-64
2023/07/10 05:01:34;;;;;;;41.78;27.75;;;19.60;99.90;;;;;;5054549;28;20043;-65
2023/07/10 05:04:00;;;;;;;40.70;27.60;;;19.60;99.90;;;;;;5054709;28;20502;-65
2023/07/10 05:06:26;;;;;;;34.70;26.95;;;19.60;99.90;;;;;;5054558;28;20071;-64
2023/07/10 05:08:54;;;;;;;36.40;25.30;;;19.60;99.90;;;;;;5054480;28;20035;-65
2023/07/10 05:11:22;;;;;;;33.78;25.77;;;19.60;99.90;;;;;;5054441;28;20498;-65
2023/07/10 05:13:48;;;;;;;30.95;25.42;;;19.60;99.90;;;;;;5054302;28;20029;-65
2023/07/10 05:16:14;;;;;;;34.42;25.70;;;19.60;99.90;;;;;;5054337;28;20471;-65
2023/07/10 05:18:40;;;;;;;34.63;24.88;;;19.60;99.90;;;;;;5054161;28;20029;-65
2023/07/10 05:21:06;;;;;;;43.70;26.20;;;19.60;99.90;;;;;;5054104;28;20078;-64
2023/07/10 05:23:31;;;;;;;38.55;25.13;;;19.50;99.90;;;;;;5053968;28;20045;-65
2023/07/10 05:26:03;;;;;;;35.42;24.65;;;19.60;99.90;;;;;;5053752;28;20108;-65
2023/07/10 05:28:29;;;;;;;29.70;24.40;;;19.60;99.90;;;;;;5053669;28;20029;-65
2023/07/10 05:30:58;;;;;;;34.42;23.90;;;19.70;99.90;;;;;;5054049;28;20071;-65
2023/07/10 05:33:24;;;;;;;31.38;23.65;;;19.70;99.90;;;;;;5053558;28;20052;-65
2023/07/10 05:35:52;;;;;;;34.67;23.20;;;19.80;99.90;;;;;;5053765;28;20071;-65
2023/07/10 05:38:17;;;;;;;33.25;23.02;;;19.80;99.90;;;;;;5053939;28;20059;-65
2023/07/10 05:40:43;;;;;;;34.75;22.92;;;19.80;99.90;;;;;;5053922;28;20612;-65
2023/07/10 05:43:09;;;;;;;30.20;22.63;;;19.80;99.90;;;;;;5053986;28;20029;-65
2023/07/10 05:45:34;;;;;;;28.92;22.75;;;19.90;99.90;;;;;;5053631;28;20150;-65
2023/07/10 05:48:00;;;;;;;32.75;21.95;;;19.90;99.90;;;;;;5053896;28;20064;-65
2023/07/10 05:50:25;;;;;;;32.67;23.35;;;20.00;99.90;;;;;;5053223;28;20067;-65
2023/07/10 05:52:51;;;;;;;30.50;22.92;;;20.00;99.90;;;;;;5053608;28;20029;-65
2023/07/10 05:55:16;;;;;;;30.02;21.50;;;20.00;99.90;;;;;;5052740;28;20029;-65
2023/07/10 05:57:42;;;;;;;28.75;20.42;;;20.00;99.90;;;;;;5053587;28;20091;-63
2023/07/10 06:00:08;;;;;;;27.75;19.38;;;20.20;99.90;;;;;;5053337;28;20064;-65
2023/07/10 06:02:33;;;;;;;28.40;20.23;;;20.20;99.90;;;;;;5048787;28;20029;-65
2023/07/10 06:04:59;;;;;;;26.60;18.27;;;20.20;99.90;;;;;;5052315;28;20040;-63
2023/07/10 06:07:24;;;;;;;26.65;17.63;;;20.30;99.90;;;;;;5050355;28;20425;-66
2023/07/10 06:09:50;;;;;;;20.02;16.35;;;20.40;99.90;;;;;;5050564;28;20513;-64
2023/07/10 06:12:15;;;;;;;21.40;15.05;;;20.50;99.90;;;;;;5058563;28;20036;-63
2023/07/10 06:14:41;;;;;;;21.42;14.05;;;20.70;99.90;;;;;;5048413;28;20079;-63
2023/07/10 06:17:06;;;;;;;22.50;14.25;;;20.90;99.90;;;;;;5059759;28;20086;-63
2023/07/10 06:19:32;;;;;;;18.80;12.32;;;20.90;99.90;;;;;;5056880;28;20078;-63
2023/07/10 06:22:13;;;;;;;14.75;11.00;;;20.90;99.90;;;;;;5049563;28;20051;-63
2023/07/10 06:24:39;;;;;;;15.18;10.75;;;20.90;99.90;;;;;;5053152;28;20041;-64
2023/07/10 06:27:06;;;;;;;16.70;9.93;;;20.80;99.90;;;;;;5051144;28;20483;-63
2023/07/10 06:29:34;;;;;;;16.20;9.90;;;20.70;99.90;;;;;;5051004;28;20100;-64
2023/07/10 06:32:00;;;;;;;18.15;10.40;;;20.70;99.90;;;;;;5047897;28;20063;-63
2023/07/10 06:34:25;;;;;;;14.57;10.90;;;20.60;99.90;;;;;;5059376;28;20090;-63
2023/07/10 06:36:51;;;;;;;14.15;9.95;;;20.50;99.90;;;;;;5060068;28;20029;-65
2023/07/10 06:39:17;;;;;;;15.18;10.23;;;20.50;99.90;;;;;;5052590;28;20086;-63
2023/07/10 06:41:42;;;;;;;15.50;10.25;;;20.50;99.90;;;;;;5067349;28;20028;-63
2023/07/10 06:44:08;;;;;;;17.05;11.02;;;20.50;99.90;;;;;;5055668;28;20048;-63
2023/07/10 06:46:33;;;;;;;13.10;8.68;;;20.40;99.90;;;;;;5047103;28;20052;-65
2023/07/10 06:48:59;;;;;;;13.73;8.32;;;20.30;99.90;;;;;;5041598;28;20033;-64
2023/07/10 06:51:24;;;;;;;11.80;9.18;;;20.30;99.90;;;;;;5050709;28;20029;-63
2023/07/10 06:53:50;;;;;;;13.80;8.05;;;20.40;99.90;;;;;;5050385;28;20047;-64
2023/07/10 06:56:15;;;;;;;12.95;8.35;;;20.50;99.90;;;;;;5050586;28;20029;-66
2023/07/10 06:58:41;;;;;;;10.32;7.82;;;20.50;99.90;;;;;;5042334;28;20029;-64
2023/07/10 07:01:07;;;;;;;12.20;7.43;;;20.60;99.90;;;;;;5046632;28;20028;-63
2023/07/10 07:03:32;;;;;;;13.35;8.45;;;20.70;99.90;;;;;;5050203;28;20029;-63
2023/07/10 07:05:58;;;;;;;13.35;8.60;;;20.80;95.00;;;;;;5035214;28;20100;-63
2023/07/10 07:08:25;;;;;;;12.65;8.50;;;20.70;96.70;;;;;;5040098;28;20031;-63
2023/07/10 07:10:53;;;;;;;13.82;8.95;;;20.70;98.00;;;;;;5053186;28;20071;-62
2023/07/10 07:13:20;;;;;;;13.52;8.30;;;20.70;94.50;;;;;;5056508;28;20107;-65
2023/07/10 07:15:54;;;;;;;13.52;8.20;;;20.70;99.90;;;;;;5052306;28;20052;-63
2023/07/10 07:18:21;;;;;;;11.93;7.55;;;20.60;99.90;;;;;;5059665;28;20025;-63
2023/07/10 07:20:47;;;;;;;11.43;7.80;;;20.70;99.90;;;;;;5052962;28;20060;-63
2023/07/10 07:23:13;;;;;;;17.98;8.50;;;20.60;99.90;;;;;;5054184;28;20041;-63
2023/07/10 07:25:41;;;;;;;11.60;8.02;;;20.60;99.90;;;;;;5051076;28;20078;-66
2023/07/10 07:28:08;;;;;;;10.65;7.68;;;20.70;99.90;;;;;;5036752;28;20083;-63
2023/07/10 07:30:34;;;;;;;11.48;7.13;;;20.70;97.40;;;;;;5053913;28;20554;-63
2023/07/10 07:33:01;;;;;;;10.88;7.25;;;20.70;96.20;;;;;;5060368;28;20032;-63
2023/07/10 07:35:26;;;;;;;11.68;7.55;;;20.70;92.10;;;;;;5053447;28;20032;-63
2023/07/10 07:37:52;;;;;;;11.35;6.65;;;20.80;71.50;;;;;;5075902;28;20096;-65
2023/07/10 07:40:18;;;;;;;11.48;7.22;;;20.90;79.80;;;;;;5058105;28;20070;-63
2023/07/10 07:42:44;;;;;;;8.63;6.32;;;21.00;61.90;;;;;;5059992;28;20044;-63
2023/07/10 07:45:10;;;;;;;13.43;7.50;;;21.20;60.30;;;;;;5049056;28;20506;-63
2023/07/10 07:47:36;;;;;;;10.27;7.30;;;21.20;41.80;;;;;;5048888;28;20025;-66
2023/07/10 07:50:02;;;;;;;10.55;6.78;;;21.30;25.80;;;;;;5058314;28;20078;-63
2023/07/10 07:52:28;;;;;;;12.00;6.30;;;21.30;18.40;;;;;;5056422;28;20471;-63
2023/07/10 07:54:53;;;;;;;12.30;5.63;;;21.30;18.20;;;;;;5048068;28;20033;-64
2023/07/10 07:57:22;;;;;;;10.68;5.85;;;21.20;6.90;;;;;;5046003;28;20041;-64
2023/07/10 07:59:48;;;;;;;10.35;4.93;;;21.20;14.60;;;;;;5050140;28;20040;-64
2023/07/10 08:02:14;;;;;;;10.07;5.00;;;21.30;13.90;;;;;;5043180;28;20022;-64
2023/07/10 08:04:41;;;;;;;8.75;5.00;;;21.30;1.00;;;;;;5062960;28;20120;-63
2023/07/10 08:07:07;;;;;;;7.32;4.13;;;21.40;1.00;;;;;;5056913;28;20100;-64
2023/07/10 08:09:33;;;;;;;5.70;3.88;;;21.40;1.00;;;;;;5052607;28;20483;-63
2023/07/10 08:11:58;;;;;;;5.55;3.67;;;21.50;1.00;;;;;;5055728;28;20085;-64
2023/07/10 08:14:24;;;;;;;6.55;3.83;;;21.60;1.00;;;;;;5058635;28;20029;-64
2023/07/10 08:16:49;;;;;;;6.05;3.97;;;21.80;1.00;;;;;;5054032;28;20457;-63
2023/07/10 08:19:15;;;;;;;6.43;3.97;;;22.00;1.00;;;;;;5042387;28;20037;-63
2023/07/10 08:21:40;;;;;;;9.32;4.55;;;22.10;1.00;;;;;;5055840;28;20035;-64
2023/07/10 08:24:06;;;;;;;7.40;4.55;;;22.30;1.00;;;;;;5053617;28;20109;-64
2023/07/10 08:26:32;;;;;;;6.38;3.85;;;22.40;1.00;;;;;;5066139;28;20108;-64
2023/07/10 08:29:17;;;;;;;5.82;3.88;;;22.80;1.00;;;;;;5058422;28;20431;-64
2023/07/10 08:31:43;;;;;;;7.20;4.15;;;23.40;1.00;;;;;;5053431;28;20028;-65
2023/07/10 08:34:08;;;;;;;5.78;4.07;;;24.30;99.90;;;;;;5051299;28;20030;-67
2023/07/10 08:36:33;;;;;;;7.05;4.00;;;25.70;99.90;;;;;;5046989;28;20021;-63
2023/07/10 08:38:59;;;;;;;7.28;4.45;;;26.20;1.00;;;;;;5035118;28;20033;-63
2023/07/10 08:41:25;;;;;;;7.57;4.55;;;26.50;99.90;;;;;;5046068;28;20486;-64
2023/07/10 08:43:51;;;;;;;6.40;3.95;;;26.70;99.90;;;;;;5051777;28;20032;-64
2023/07/10 08:46:23;;;;;;;7.40;4.18;;;26.70;1.00;;;;;;5049784;28;20163;-64
2023/07/10 08:48:58;;;;;;;7.20;3.70;;;26.70;50.00;;;;;;5056149;28;20090;-64
2023/07/10 08:51:49;;;;;;;5.25;3.83;;;26.10;1.00;;;;;;5052302;28;20538;-63
2023/07/10 08:54:18;;;;;;;7.60;4.30;;;26.20;99.90;;;;;;5049815;28;20517;-63
2023/07/10 08:57:07;;;;;;;6.45;3.95;;;26.50;1.00;;;;;;5041785;28;20036;-64
2023/07/10 08:59:57;;;;;;;4.90;4.15;;;27.00;1.00;;;;;;5050394;28;20390;-64
2023/07/10 09:02:42;;;;;;;5.82;3.50;;;27.20;65.00;;;;;;5050894;28;20534;-64
2023/07/10 09:05:13;;;;;;;6.00;3.53;;;28.70;99.90;;;;;;5052654;28;20071;-64
2023/07/10 09:07:42;;;;;;;6.18;3.47;;;28.30;99.90;;;;;;5052485;28;20501;-65
2023/07/10 09:10:16;;;;;;;8.35;3.70;;;28.00;99.90;;;;;;5060957;28;20035;-65
2023/07/10 09:12:47;;;;;;;8.00;4.38;;;26.70;11.20;;;;;;5048516;28;20029;-66
2023/07/10 09:15:15;;;;;;;8.80;4.25;;;26.50;1.00;;;;;;5046076;28;20468;-65
2023/07/10 09:18:02;;;;;;;4.82;3.53;;;27.60;1.00;;;;;;5044116;28;20028;-62
2023/07/10 09:20:27;;;;;;;5.07;3.38;;;28.50;1.00;;;;;;5045125;28;20380;-62
2023/07/10 09:22:59;;;;;;;4.65;3.38;;;27.40;1.00;;;;;;5033572;28;20037;-62
2023/07/10 09:25:25;;;;;;;9.35;4.10;;;27.50;99.90;;;;;;5050883;28;20036;-64
2023/07/10 09:27:51;;;;;;;9.27;3.17;;;27.40;99.90;;;;;;5042849;28;20064;-63
2023/07/10 09:30:56;;;;;;;5.93;3.78;;;26.50;99.90;;;;;;5041357;28;20028;-64
2023/07/10 09:33:22;;;;;;;5.40;3.50;;;26.50;99.90;;;;;;5047222;28;20578;-64
2023/07/10 09:35:50;;;;;;;6.30;3.70;;;26.40;99.90;;;;;;5044080;28;20044;-66
2023/07/10 09:38:18;;;;;;;7.10;3.70;;;26.10;1.00;;;;;;5053845;28;20491;-64
2023/07/10 09:40:48;;;;;;;5.32;3.75;;;26.10;1.00;;;;;;5052027;28;20091;-64
2023/07/10 09:43:23;;;;;;;7.03;4.22;;;26.40;1.00;;;;;;5053555;28;20051;-67
2023/07/10 09:45:52;;;;;;;4.50;4.10;;;26.10;99.90;;;;;;5047807;28;20029;-64
2023/07/10 09:48:30;;;;;;;6.13;3.97;;;25.80;99.90;;;;;;5042763;28;20233;-64
2023/07/10 09:51:00;;;;;;;7.40;3.80;;;26.50;99.90;;;;;;5042887;28;20026;-67
2023/07/10 09:53:36;;;;;;;6.07;3.80;;;26.80;99.90;;;;;;5047562;28;20036;-63
2023/07/10 09:56:02;;;;;;;5.07;3.60;;;26.50;1.00;;;;;;5041509;28;20107;-63
2023/07/10 09:58:28;;;;;;;6.80;3.33;;;27.30;1.00;;;;;;5056231;28;20399;-64
2023/07/10 10:00:59;;;;;;;7.07;3.53;;;27.70;1.00;;;;;;5053247;28;20093;-65
2023/07/10 10:03:30;;;;;;;5.65;2.90;;;29.30;1.00;;;;;;5051602;28;20025;-64
2023/07/10 10:05:57;;;;;;;5.32;3.33;;;28.70;1.00;;;;;;5057162;28;20033;-64
2023/07/10 10:08:44;;;;;;;5.18;2.80;;;27.80;2.20;;;;;;5055655;28;20037;-64
2023/07/10 10:11:11;;;;;;;4.38;2.85;;;26.60;1.00;;;;;;5053737;28;20474;-64
2023/07/10 10:13:45;;;;;;;4.03;2.83;;;26.80;1.00;;;;;;5056972;28;20024;-66
2023/07/10 10:16:48;;;;;;;5.53;2.55;;;27.50;97.90;;;;;;5047917;28;20036;-63
2023/07/10 10:19:34;;;;;;;;;;;26.90;46.70;;;;;;5054392;28;20453;-64
2023/07/10 10:21:59;;;;;;;6.68;2.63;;;27.20;6.00;;;;;;5061524;28;20377;-65
2023/07/10 10:24:29;;;;;;;3.80;2.40;;;27.10;1.00;;;;;;5047001;28;20045;-64
2023/07/10 10:30:33;;;;;;;3.83;2.28;;;27.40;99.90;;;;;;5111681;27;21050;-65
2023/07/10 10:33:14;;;;;;;4.82;2.42;;;28.40;99.90;;;;;;5109798;28;20106;-65
2023/07/10 10:36:00;;;;;;;2.92;2.15;;;28.60;99.90;;;;;;5109587;28;20019;-64
2023/07/10 10:38:52;;;;;;;4.22;2.58;;;28.10;99.90;;;;;;5100217;28;20025;-64
2023/07/10 10:41:44;;;;;;;3.90;2.65;;;27.70;99.90;;;;;;5102711;28;20036;-64
2023/07/10 10:44:50;;;;;;;5.07;2.58;;;28.40;99.90;;;;;;5108804;28;20024;-64
2023/07/10 10:47:29;;;;;;;5.55;2.70;;;28.60;99.90;;;;;;5107903;28;20047;-65
2023/07/10 10:50:06;;;;;;;5.32;2.90;;;27.70;99.90;;;;;;5104201;28;20158;-65
2023/07/10 10:53:02;;;;;;;5.90;2.50;;;28.00;99.90;;;;;;5107692;28;20027;-66
2023/07/10 10:55:42;;;;;;;3.85;2.60;;;28.20;1.00;;;;;;5104668;28;20032;-64
2023/07/10 10:58:47;;;;;;;3.95;2.40;;;27.70;1.00;;;;;;5108765;28;20110;-65
2023/07/10 11:01:39;;;;;;;3.67;2.20;;;27.90;1.00;;;;;;5108259;28;20036;-63
2023/07/10 11:04:19;;;;;;;6.43;2.63;;;27.70;99.90;;;;;;5110043;28;20038;-64
2023/07/10 11:06:49;;;;;;;4.10;2.50;;;27.60;99.90;;;;;;5109124;28;20050;-64
2023/07/10 11:09:24;;;;;;;5.35;2.78;;;26.70;99.90;;;;;;5113569;28;20413;-63
2023/07/10 11:11:51;;;;;;;4.70;2.70;;;25.90;99.90;;;;;;5101036;28;20027;-64
2023/07/10 11:14:17;;;;;;;4.82;2.95;;;25.40;1.00;;;;;;5106304;28;20492;-65
2023/07/10 11:16:43;;;;;;;5.82;2.40;;;25.50;99.90;;;;;;5107311;28;20031;-64
2023/07/10 11:19:16;;;;;;;5.70;2.53;;;26.20;99.90;;;;;;5110881;28;20028;-64
2023/07/10 11:21:42;;;;;;;;;;;25.90;1.00;;;;;;5101244;28;20064;-64
2023/07/10 11:24:26;;;;;;;5.95;2.35;;;26.20;99.90;;;;;;5099216;28;19963;-64
2023/07/10 11:26:57;;;;;;;5.78;2.53;;;26.80;1.00;;;;;;5098995;28;20489;-63
2023/07/10 11:29:35;;;;;;;5.40;1.90;;;27.50;1.00;;;;;;5105869;28;20052;-64
2023/07/10 11:32:12;;;;;;;2.88;2.08;;;27.70;99.90;;;;;;5101108;28;20055;-64
2023/07/10 11:34:48;;;;;;;5.63;2.30;;;27.40;99.90;;;;;;5103856;28;20561;-64
2023/07/10 11:37:35;;;;;;;4.20;1.92;;;27.30;99.90;;;;;;5089463;28;20025;-64
2023/07/10 11:40:26;;;;;;;3.50;1.95;;;27.00;99.90;;;;;;5092275;28;20042;-64
2023/07/10 11:42:51;;;;;;;4.43;2.00;;;27.30;99.90;;;;;;5092575;28;20027;-65
2023/07/10 11:45:17;;;;;;;8.77;2.20;;;27.50;99.90;;;;;;5101680;28;20024;-64
2023/07/10 11:47:44;;;;;;;4.40;2.10;;;27.20;99.90;;;;;;5111051;28;20058;-64
2023/07/10 11:50:22;;;;;;;4.30;1.83;;;26.70;99.90;;;;;;5091721;28;20122;-65
2023/07/10 11:53:06;;;;;;;8.07;1.98;;;27.10;99.90;;;;;;5094140;28;20030;-66
2023/07/10 11:55:40;;;;;;;4.43;1.73;;;27.80;99.90;;;;;;5080942;28;20025;-66
2023/07/10 11:58:22;;;;;;;10.35;2.40;;;27.90;42.70;;;;;;5092177;28;20028;-64
2023/07/10 12:00:48;;;;;;;7.82;2.10;;;27.50;55.50;;;;;;5100462;28;20052;-64
2023/07/10 12:03:13;;;;;;;4.10;2.13;;;27.60;88.60;;;;;;5093376;28;20062;-64
2023/07/10 12:05:39;;;;;;;9.18;3.25;;;28.10;12.70;;;;;;5091989;28;20036;-62
2023/07/10 12:08:12;;;;;;;4.32;2.28;;;27.50;80.30;;;;;;5090581;28;20035;-65
2023/07/10 12:10:39;;;;;;;;;;;27.50;99.90;;;;;;5077454;28;20048;-64
2023/07/10 12:13:21;;;;;;;5.07;2.28;;;27.80;59.20;;;;;;5091811;28;19908;-65
2023/07/10 12:15:48;;;;;;;5.95;1.88;;;27.30;1.00;;;;;;5075312;28;20089;-64
2023/07/10 12:18:18;;;;;;;4.85;1.98;;;27.40;97.20;;;;;;5094411;28;20035;-65
2023/07/10 12:20:49;;;;;;;6.28;2.30;;;27.90;1.00;;;;;;5093999;28;20481;-65
2023/07/10 12:23:15;;;;;;;6.10;2.20;;;27.90;1.00;;;;;;5098580;28;20062;-64
2023/07/10 12:25:58;;;;;;;5.93;2.00;;;26.90;33.40;;;;;;5085090;28;20037;-64
2023/07/10 12:28:26;;;;;;;5.72;2.00;;;27.70;92.00;;;;;;5093338;28;20055;-65
2023/07/10 12:30:54;;;;;;;3.72;1.95;;;28.10;1.00;;;;;;5083470;28;20509;-63
2023/07/10 12:33:37;;;;;;;4.50;2.10;;;27.90;5.60;;;;;;5089496;28;20462;-64
2023/07/10 12:36:25;;;;;;;4.72;2.03;;;28.20;1.00;;;;;;5093606;28;20069;-64
2023/07/10 12:38:53;;;;;;;5.63;2.00;;;28.00;4.80;;;;;;5075689;28;20028;-64
2023/07/10 12:41:20;;;;;;;6.63;2.13;;;28.30;1.00;;;;;;5088761;28;20489;-63
2023/07/10 12:43:48;;;;;;;4.90;1.75;;;28.40;1.00;;;;;;5095018;28;20058;-63
2023/07/10 12:46:17;;;;;;;6.63;1.85;;;28.70;1.00;;;;;;5090973;28;20413;-64
2023/07/10 12:48:44;;;;;;;4.47;2.40;;;28.70;1.00;;;;;;5107826;28;20122;-64
2023/07/10 12:51:20;;;;;;;4.68;2.08;;;28.40;1.00;;;;;;5088762;28;20024;-64
2023/07/10 12:53:46;;;;;;;6.30;2.00;;;27.30;1.00;;;;;;5091661;28;20023;-63
2023/07/10 12:56:33;;;;;;;4.50;1.90;;;27.00;1.00;;;;;;5096069;28;20036;-64